Terminal Aerodrome Forecast
Issued by NWS

Home | Current Version | Previous Version | Text Only | Print | Product List | Glossary On
Versions: 1 2 3 4 5 6 7 8 9 10 11 12 13 14
000
FTUS44 KBMX 281740
TAFTCL
TAF
KTCL 281740Z 2818/2918 25005KT P6SM VCSH BKN050 BKN100
      TEMPO 2821/2823 24012G22KT 3SM TSRA BKN040CB OVC080
     FM282300 25010KT 4SM SHRA VCTS OVC050CB
     FM290400 23004KT P6SM OVC015=

USA.gov is the U.S. government's official web portal to all federal, state and local government web resources and services.